Time;durP1;ratioP1;P1;durP2;ratioP2;P2;SDS_P1;SDS_P2;PMS_P1;PMS_P2;Temp;Humidity;BMP_temperature;BMP_pressure;BME280_temperature;BME280_humidity;BME280_pressure;Samples;Min_cycle;Max_cycle;Signal;HPM_P1;HPM_P2
2023/05/11 00:01:36;;;;;;;8.87;2.20;;;22.60;99.90;;;;;;5104863;28;20195;-69
2023/05/11 00:04:04;;;;;;;4.63;1.73;;;22.90;99.90;;;;;;5075201;28;20172;-69
2023/05/11 00:06:32;;;;;;;28.73;4.60;;;23.30;99.90;;;;;;5074860;28;20186;-68
2023/05/11 00:09:00;;;;;;;20.10;3.40;;;23.60;99.90;;;;;;5075003;28;20168;-69
2023/05/11 00:11:27;;;;;;;98.53;13.60;;;23.20;99.90;;;;;;5074726;28;20336;-69
2023/05/11 00:13:55;;;;;;;4.50;1.57;;;23.60;99.90;;;;;;5074517;28;20176;-71
2023/05/11 00:16:23;;;;;;;77.60;12.23;;;23.90;99.90;;;;;;5074712;28;20180;-70
2023/05/11 00:18:50;;;;;;;7.83;1.83;;;24.10;99.90;;;;;;5074757;28;20257;-70
2023/05/11 00:21:19;;;;;;;4.80;1.33;;;24.20;99.90;;;;;;5074390;28;20188;-70
2023/05/11 00:23:47;;;;;;;13.10;3.77;;;24.10;99.90;;;;;;5074623;28;20180;-70
2023/05/11 00:26:15;;;;;;;40.00;10.80;;;23.50;99.90;;;;;;5074437;28;20212;-70
2023/05/11 00:28:44;;;;;;;24.87;3.63;;;23.70;99.90;;;;;;5073820;28;20322;-69
2023/05/11 00:31:12;;;;;;;40.70;7.93;;;23.80;99.90;;;;;;5073902;28;20613;-69
2023/05/11 00:33:40;;;;;;;14.30;2.60;;;24.00;99.90;;;;;;5074124;28;20589;-69
2023/05/11 00:36:08;;;;;;;6.73;1.50;;;24.00;99.90;;;;;;5071369;28;20188;-68
2023/05/11 00:38:39;;;;;;;6.40;1.43;;;24.10;99.90;;;;;;5073297;28;20216;-72
2023/05/11 00:41:07;;;;;;;14.03;2.80;;;23.70;99.90;;;;;;5071431;28;20685;-70
2023/05/11 00:43:35;;;;;;;4.70;1.40;;;24.10;99.90;;;;;;5074053;28;20647;-70
2023/05/11 00:46:04;;;;;;;6.13;1.67;;;24.20;99.90;;;;;;5074099;28;20198;-70
2023/05/11 00:48:32;;;;;;;16.17;4.10;;;24.40;99.90;;;;;;5074014;28;20190;-70
2023/05/11 00:51:00;;;;;;;31.20;6.70;;;24.60;99.90;;;;;;5074113;28;20184;-70
2023/05/11 00:56:50;;;;;;;14.53;3.50;;;24.80;99.90;;;;;;5072955;28;20611;-70
2023/05/11 00:59:18;;;;;;;5.37;1.80;;;24.80;99.90;;;;;;5074047;28;20191;-74
2023/05/11 01:01:46;;;;;;;25.47;4.77;;;25.20;99.90;;;;;;5072793;28;20681;-71
2023/05/11 01:04:14;;;;;;;37.60;6.70;;;25.00;99.90;;;;;;5073949;28;20521;-73
2023/05/11 01:07:14;;;;;;;142.47;16.70;;;24.70;99.90;;;;;;5073594;28;20171;-68
2023/05/11 01:10:06;;;;;;;12.57;2.63;;;25.20;99.90;;;;;;5056360;28;20198;-72
2023/05/11 01:12:49;;;;;;;16.70;3.07;;;25.00;99.90;;;;;;5073785;28;20309;-70
2023/05/11 01:15:40;;;;;;;27.23;4.93;;;25.00;99.90;;;;;;5073580;28;20589;-71
2023/05/11 01:18:25;;;;;;;10.27;2.90;;;24.80;99.90;;;;;;5072881;28;20215;-72
2023/05/11 01:21:01;;;;;;;315.80;44.10;;;24.60;99.90;;;;;;5073658;28;20168;-73
2023/05/11 01:23:59;;;;;;;29.30;5.47;;;25.00;99.90;;;;;;5073639;28;20706;-71
2023/05/11 01:26:50;;;;;;;454.30;69.97;;;25.20;99.90;;;;;;5061417;28;20846;-71
2023/05/11 01:29:43;;;;;;;78.13;16.10;;;25.20;99.90;;;;;;5053409;28;20642;-72
2023/05/11 01:32:28;;;;;;;39.37;13.07;;;25.00;99.90;;;;;;5053519;28;20181;-71
2023/05/11 01:35:24;;;;;;;5.37;1.80;;;25.20;99.90;;;;;;5053556;28;20697;-72
2023/05/11 01:37:54;;;;;;;6.80;1.50;;;25.30;99.90;;;;;;5069183;28;20745;-72
2023/05/11 01:40:26;;;;;;;9.60;1.90;;;25.60;99.90;;;;;;5073398;28;20196;-71
2023/05/11 01:43:04;;;;;;;8.43;1.67;;;25.50;99.90;;;;;;5071651;28;20656;-72
2023/05/11 01:45:35;;;;;;;11.43;2.13;;;26.10;99.90;;;;;;5073219;28;20164;-72
2023/05/11 01:48:06;;;;;;;8.20;2.23;;;26.20;99.90;;;;;;5073102;28;20267;-72
2023/05/11 01:50:36;;;;;;;7.43;2.27;;;26.90;99.90;;;;;;5072190;28;20164;-73
2023/05/11 01:53:05;;;;;;;12.00;2.10;;;26.80;99.90;;;;;;5072345;28;20229;-70
2023/05/11 01:55:36;;;;;;;7.47;1.90;;;26.90;99.90;;;;;;5068812;28;20195;-73
2023/05/11 01:58:06;;;;;;;10.57;1.50;;;27.10;99.90;;;;;;5072236;28;20755;-72
2023/05/11 02:00:35;;;;;;;12.43;3.20;;;27.00;99.90;;;;;;5072681;28;20267;-71
2023/05/11 02:03:05;;;;;;;32.40;5.60;;;25.80;99.90;;;;;;5072413;28;20225;-71
2023/05/11 02:05:35;;;;;;;27.90;5.13;;;26.10;99.90;;;;;;5070338;28;20172;-74
2023/05/11 02:08:05;;;;;;;6.53;1.80;;;25.10;99.90;;;;;;5072535;28;20694;-74
2023/05/11 02:10:34;;;;;;;17.00;2.67;;;24.60;99.90;;;;;;5072716;28;20199;-72
2023/05/11 02:13:04;;;;;;;29.97;9.20;;;24.60;99.90;;;;;;5072406;28;20704;-73
2023/05/11 02:15:33;;;;;;;7.93;1.63;;;24.90;99.90;;;;;;5072570;28;20186;-73
2023/05/11 02:18:02;;;;;;;58.10;10.13;;;24.60;99.90;;;;;;5071965;28;20243;-72
2023/05/11 02:20:31;;;;;;;5.40;1.40;;;24.40;99.90;;;;;;5072502;28;20633;-71
2023/05/11 02:23:00;;;;;;;2.80;1.67;;;24.50;99.90;;;;;;5072743;28;20180;-72
2023/05/11 02:25:29;;;;;;;16.43;4.00;;;24.60;99.90;;;;;;5072717;28;20234;-72
2023/05/11 02:27:57;;;;;;;12.90;4.23;;;24.80;99.90;;;;;;5071811;28;20608;-72
2023/05/11 02:33:50;;;;;;;8.43;1.87;;;25.10;99.90;;;;;;5051823;28;20915;-70
2023/05/11 02:36:24;;;;;;;6.93;2.00;;;25.30;99.90;;;;;;5052345;28;20219;-68
2023/05/11 02:39:00;;;;;;;7.30;2.10;;;25.60;99.90;;;;;;5070957;28;20272;-75
2023/05/11 02:41:31;;;;;;;7.40;2.30;;;25.40;99.90;;;;;;5072082;28;20274;-70
2023/05/11 02:44:03;;;;;;;29.00;5.57;;;25.40;99.90;;;;;;5071894;28;20245;-67
2023/05/11 02:46:35;;;;;;;33.00;7.23;;;25.80;99.90;;;;;;5071561;28;20610;-75
2023/05/11 02:49:07;;;;;;;6.83;1.87;;;25.80;99.90;;;;;;5071675;28;20563;-69
2023/05/11 02:51:38;;;;;;;7.67;1.93;;;25.20;99.90;;;;;;5072024;28;20176;-71
2023/05/11 02:54:10;;;;;;;6.67;2.50;;;25.20;99.90;;;;;;5072063;28;20192;-72
2023/05/11 02:56:40;;;;;;;8.97;1.33;;;25.50;99.90;;;;;;5071416;28;20198;-71
2023/05/11 02:59:08;;;;;;;10.50;2.43;;;25.80;99.90;;;;;;5072011;28;20222;-72
2023/05/11 03:01:38;;;;;;;10.57;2.10;;;26.00;99.90;;;;;;5071754;28;20190;-73
2023/05/11 03:04:06;;;;;;;6.77;1.53;;;25.20;99.90;;;;;;5071823;28;20263;-69
2023/05/11 03:06:35;;;;;;;6.47;1.83;;;25.80;99.90;;;;;;5071339;28;20259;-71
2023/05/11 03:09:03;;;;;;;7.03;1.97;;;26.20;99.90;;;;;;5071967;28;20179;-70
2023/05/11 03:11:31;;;;;;;8.07;2.30;;;26.20;99.90;;;;;;5071644;28;20232;-71
2023/05/11 03:14:00;;;;;;;5.83;2.17;;;25.70;99.90;;;;;;5071742;28;20187;-71
2023/05/11 03:16:29;;;;;;;12.03;2.40;;;25.30;99.90;;;;;;5071675;28;20184;-72
2023/05/11 03:18:58;;;;;;;8.73;1.57;;;25.40;99.90;;;;;;5071269;28;20224;-72
2023/05/11 03:21:27;;;;;;;6.07;1.60;;;25.80;99.90;;;;;;5071822;28;20690;-75
2023/05/11 03:27:29;;;;;;;6.47;1.60;;;25.80;99.90;;;;;;5070654;28;20257;-70
2023/05/11 03:29:58;;;;;;;3.70;1.60;;;26.10;99.90;;;;;;5064878;28;20262;-72
2023/05/11 03:32:25;;;;;;;4.50;1.40;;;25.80;99.40;;;;;;5071296;28;20183;-72
2023/05/11 03:34:53;;;;;;;4.40;1.77;;;25.30;99.90;;;;;;5071709;28;20188;-72
2023/05/11 03:37:21;;;;;;;11.70;2.00;;;25.20;98.90;;;;;;5071725;28;20276;-74
2023/05/11 03:39:55;;;;;;;5.77;1.37;;;24.70;99.90;;;;;;5071360;28;20198;-72
2023/05/11 03:42:25;;;;;;;4.97;1.60;;;24.50;99.90;;;;;;5071701;28;20187;-73
2023/05/11 03:44:58;;;;;;;5.23;1.40;;;24.90;99.90;;;;;;5071637;28;20176;-72
2023/05/11 03:47:30;;;;;;;4.50;1.50;;;24.70;99.90;;;;;;5071442;28;20186;-73
2023/05/11 03:49:58;;;;;;;5.53;1.97;;;24.80;98.60;;;;;;5071340;28;20176;-71
2023/05/11 03:52:27;;;;;;;9.23;1.30;;;24.80;98.60;;;;;;5071257;28;20191;-72
2023/05/11 03:54:55;;;;;;;2.10;1.07;;;24.90;96.30;;;;;;5071293;28;20541;-72
2023/05/11 04:00:46;;;;;;;7.17;1.13;;;24.60;99.90;;;;;;5070531;28;20186;-71
2023/05/11 04:03:14;;;;;;;4.87;1.70;;;24.50;99.90;;;;;;5070787;28;20495;-72
2023/05/11 04:05:42;;;;;;;7.67;1.90;;;24.60;98.30;;;;;;5071226;28;20180;-71
2023/05/11 04:08:10;;;;;;;3.17;1.20;;;24.20;99.90;;;;;;5071237;28;20183;-71
2023/05/11 04:10:38;;;;;;;5.43;1.33;;;24.00;99.90;;;;;;5071264;28;20176;-71
2023/05/11 04:13:06;;;;;;;3.70;1.47;;;24.60;99.90;;;;;;5071744;28;20172;-74
2023/05/11 04:15:36;;;;;;;3.00;1.47;;;24.90;99.90;;;;;;5074522;28;20211;-70
2023/05/11 04:18:04;;;;;;;4.50;1.13;;;24.80;99.90;;;;;;5074250;28;20211;-73
2023/05/11 04:20:31;;;;;;;4.83;1.47;;;24.70;99.20;;;;;;5072997;28;20640;-75
2023/05/11 04:22:59;;;;;;;4.67;1.10;;;24.40;99.90;;;;;;5074229;28;20175;-73
2023/05/11 04:25:27;;;;;;;5.17;1.17;;;25.00;95.00;;;;;;5074138;28;20228;-81
2023/05/11 04:27:55;;;;;;;4.33;1.60;;;24.50;92.60;;;;;;5073831;28;20172;-72
2023/05/11 04:30:23;;;;;;;4.03;1.20;;;24.30;96.00;;;;;;5073673;28;20286;-73
2023/05/11 04:32:51;;;;;;;3.43;1.20;;;24.50;98.20;;;;;;5073976;28;20681;-71
2023/05/11 04:35:20;;;;;;;5.93;1.30;;;24.30;94.80;;;;;;5074064;28;20545;-69
2023/05/11 04:37:48;;;;;;;3.50;1.20;;;23.70;96.60;;;;;;5073460;28;20216;-70
2023/05/11 04:40:18;;;;;;;5.07;1.10;;;23.90;98.80;;;;;;5074039;28;20203;-71
2023/05/11 04:42:45;;;;;;;3.77;1.60;;;24.30;94.00;;;;;;5073799;28;20515;-69
2023/05/11 04:45:13;;;;;;;2.73;1.20;;;24.40;91.70;;;;;;5074179;28;20743;-67
2023/05/11 04:47:41;;;;;;;4.43;1.27;;;24.30;93.40;;;;;;5073782;28;20176;-70
2023/05/11 04:50:09;;;;;;;2.67;1.20;;;24.40;94.90;;;;;;5073564;28;20188;-71
2023/05/11 04:52:37;;;;;;;4.73;1.10;;;23.80;97.40;;;;;;5073650;28;20180;-71
2023/05/11 04:55:05;;;;;;;2.00;1.10;;;24.00;97.60;;;;;;5073624;28;20263;-71
2023/05/11 04:57:33;;;;;;;4.33;1.50;;;23.60;98.50;;;;;;5073593;28;20242;-68
2023/05/11 05:00:01;;;;;;;4.03;1.50;;;23.50;99.90;;;;;;5073477;28;20259;-70
2023/05/11 05:02:29;;;;;;;6.70;1.23;;;23.80;99.90;;;;;;5073626;28;20263;-70
2023/05/11 05:04:56;;;;;;;7.10;1.47;;;23.90;99.70;;;;;;5073465;28;20183;-70
2023/05/11 05:07:24;;;;;;;4.77;1.70;;;23.70;99.90;;;;;;5073084;28;20191;-70
2023/05/11 05:09:52;;;;;;;5.60;1.13;;;24.10;99.90;;;;;;5073358;28;20203;-70
2023/05/11 05:12:20;;;;;;;4.20;1.30;;;24.30;99.90;;;;;;5073367;28;20210;-70
2023/05/11 05:14:47;;;;;;;3.60;1.20;;;24.10;99.90;;;;;;5073190;28;20187;-69
2023/05/11 05:17:15;;;;;;;4.47;1.20;;;24.10;99.90;;;;;;5072635;28;20216;-68
2023/05/11 05:19:43;;;;;;;2.97;1.33;;;24.10;99.90;;;;;;5072648;28;20207;-71
2023/05/11 05:22:11;;;;;;;4.37;1.70;;;23.70;99.90;;;;;;5071281;28;20706;-70
2023/05/11 05:24:38;;;;;;;8.63;1.80;;;23.90;99.90;;;;;;5072463;28;20742;-69
2023/05/11 05:27:06;;;;;;;3.43;1.30;;;23.60;99.90;;;;;;5072670;28;20183;-70
2023/05/11 05:29:34;;;;;;;5.10;1.67;;;23.60;99.90;;;;;;5069768;28;20644;-70
2023/05/11 05:32:02;;;;;;;5.07;1.10;;;23.20;99.90;;;;;;5072333;28;20233;-70
2023/05/11 05:34:29;;;;;;;2.37;1.33;;;23.10;99.90;;;;;;5072299;28;20636;-70
2023/05/11 05:36:57;;;;;;;4.30;1.50;;;22.90;99.90;;;;;;5072156;28;20191;-70
2023/05/11 05:39:25;;;;;;;2.50;1.30;;;22.70;99.90;;;;;;5072273;28;20669;-70
2023/05/11 05:41:53;;;;;;;4.23;1.30;;;22.60;99.90;;;;;;5071529;28;20267;-71
2023/05/11 05:47:43;;;;;;;4.57;1.30;;;22.60;99.90;;;;;;5071592;28;20194;-69
2023/05/11 05:50:11;;;;;;;8.53;1.20;;;22.60;99.90;;;;;;5071939;28;20192;-69
2023/05/11 05:52:38;;;;;;;5.90;1.23;;;22.60;99.90;;;;;;5072621;28;20175;-70
2023/05/11 05:55:06;;;;;;;6.67;1.70;;;22.40;99.90;;;;;;5072207;28;20179;-70
2023/05/11 05:57:34;;;;;;;4.93;1.30;;;22.50;99.90;;;;;;5071969;28;20676;-71
2023/05/11 06:00:02;;;;;;;6.93;1.70;;;22.30;99.90;;;;;;5071921;28;20724;-71
2023/05/11 06:02:30;;;;;;;11.97;2.53;;;22.00;99.90;;;;;;5072283;28;20702;-69
2023/05/11 06:04:57;;;;;;;5.70;1.80;;;21.90;99.90;;;;;;5072406;28;20556;-69
2023/05/11 06:07:25;;;;;;;7.13;2.00;;;21.70;99.90;;;;;;5071970;28;20184;-70
2023/05/11 06:09:53;;;;;;;6.93;2.07;;;21.50;99.90;;;;;;5070883;28;20610;-71
2023/05/11 06:12:20;;;;;;;9.83;1.87;;;21.30;99.90;;;;;;5072019;28;20187;-69
2023/05/11 06:14:48;;;;;;;8.83;2.00;;;21.20;99.90;;;;;;5071870;28;20171;-70
2023/05/11 06:17:16;;;;;;;14.03;2.40;;;21.10;99.90;;;;;;5071447;28;20645;-70
2023/05/11 06:19:44;;;;;;;7.83;1.90;;;21.00;99.90;;;;;;5072060;28;20206;-70
2023/05/11 06:22:12;;;;;;;7.77;2.40;;;20.80;99.90;;;;;;5071788;28;20168;-69
2023/05/11 06:24:39;;;;;;;8.27;2.03;;;20.70;99.90;;;;;;5071538;28;20333;-71
2023/05/11 06:27:07;;;;;;;7.00;2.53;;;20.60;99.90;;;;;;5071606;28;20180;-70
2023/05/11 06:29:35;;;;;;;10.97;2.43;;;20.40;99.90;;;;;;5071664;28;20225;-71
2023/05/11 06:32:03;;;;;;;13.40;3.00;;;20.30;99.90;;;;;;5071479;28;20180;-69
2023/05/11 06:34:30;;;;;;;6.83;2.50;;;20.20;99.90;;;;;;5071712;28;20179;-71
2023/05/11 06:37:01;;;;;;;12.43;3.10;;;20.00;99.90;;;;;;5070689;28;20268;-71
2023/05/11 06:39:29;;;;;;;6.37;2.57;;;19.90;99.90;;;;;;5071797;28;20188;-70
2023/05/11 06:41:57;;;;;;;14.93;2.53;;;19.90;99.90;;;;;;5071608;28;20601;-70
2023/05/11 06:44:24;;;;;;;8.63;2.70;;;19.80;99.90;;;;;;5071478;28;20187;-70
2023/05/11 06:46:52;;;;;;;7.27;2.47;;;19.80;99.90;;;;;;5071351;28;20171;-70
2023/05/11 06:49:20;;;;;;;9.93;2.57;;;19.60;99.90;;;;;;5071422;28;20183;-70
2023/05/11 06:51:48;;;;;;;9.13;2.80;;;19.60;99.90;;;;;;5070175;28;20666;-70
2023/05/11 06:54:15;;;;;;;4.33;2.10;;;19.40;99.90;;;;;;5071457;28;20263;-70
2023/05/11 06:56:43;;;;;;;9.40;2.90;;;19.40;99.90;;;;;;5071496;28;20184;-67
2023/05/11 06:59:11;;;;;;;10.23;2.57;;;19.40;99.90;;;;;;5070127;28;20603;-70
2023/05/11 07:01:39;;;;;;;8.03;2.03;;;19.30;99.90;;;;;;5069966;28;20183;-70
2023/05/11 07:04:07;;;;;;;7.43;2.30;;;19.20;99.90;;;;;;5071422;28;20238;-70
2023/05/11 07:06:35;;;;;;;10.30;2.40;;;19.10;99.90;;;;;;5071431;28;20180;-70
2023/05/11 07:09:02;;;;;;;9.90;2.30;;;19.00;99.90;;;;;;5071428;28;20168;-69
2023/05/11 07:11:31;;;;;;;10.83;2.30;;;18.90;99.90;;;;;;5071378;28;20590;-70
2023/05/11 07:13:59;;;;;;;10.07;2.73;;;18.80;99.90;;;;;;5071367;28;20204;-71
2023/05/11 07:16:26;;;;;;;6.07;2.80;;;18.60;99.90;;;;;;5070910;28;20812;-69
2023/05/11 07:18:55;;;;;;;11.60;2.50;;;18.60;99.90;;;;;;5070844;28;20652;-69
2023/05/11 07:21:25;;;;;;;9.07;2.73;;;18.50;99.90;;;;;;5068319;28;20637;-70
2023/05/11 07:23:53;;;;;;;10.50;3.00;;;18.40;99.90;;;;;;5070730;28;20190;-68
2023/05/11 07:26:21;;;;;;;15.30;2.53;;;18.20;99.90;;;;;;5070850;28;20233;-68
2023/05/11 07:28:49;;;;;;;16.50;3.07;;;18.10;99.90;;;;;;5070850;28;20264;-69
2023/05/11 07:31:17;;;;;;;11.33;2.60;;;18.00;99.90;;;;;;5071190;28;20183;-69
2023/05/11 07:33:44;;;;;;;11.43;3.70;;;17.80;99.90;;;;;;5071101;28;20206;-68
2023/05/11 07:36:12;;;;;;;11.17;2.97;;;17.70;99.90;;;;;;5071177;28;20254;-70
2023/05/11 07:38:40;;;;;;;11.87;2.97;;;17.40;99.90;;;;;;5071205;28;20566;-70
2023/05/11 07:41:08;;;;;;;6.83;2.80;;;17.40;99.90;;;;;;5070808;28;20176;-68
2023/05/11 07:43:36;;;;;;;11.87;3.10;;;17.20;99.90;;;;;;5069764;28;20278;-70
2023/05/11 07:46:03;;;;;;;5.10;2.67;;;17.20;99.90;;;;;;5071126;28;20177;-69
2023/05/11 07:48:31;;;;;;;10.07;2.77;;;17.10;99.90;;;;;;5071136;28;20191;-69
2023/05/11 07:51:00;;;;;;;8.37;2.80;;;17.20;99.90;;;;;;5075020;28;20241;-71
2023/05/11 07:53:28;;;;;;;9.70;2.90;;;17.20;99.90;;;;;;5074928;28;20179;-69
2023/05/11 07:55:58;;;;;;;13.70;3.43;;;17.20;99.90;;;;;;5074706;28;20182;-70
2023/05/11 07:58:26;;;;;;;10.70;2.80;;;17.40;99.90;;;;;;5074764;28;20243;-68
2023/05/11 08:00:53;;;;;;;8.50;2.60;;;17.40;99.90;;;;;;5074951;28;20641;-68
2023/05/11 08:03:21;;;;;;;8.00;3.10;;;17.30;99.90;;;;;;5074238;28;20596;-68
2023/05/11 08:05:49;;;;;;;8.83;2.53;;;17.00;99.90;;;;;;5074173;28;20175;-68
2023/05/11 08:08:17;;;;;;;7.80;3.10;;;17.10;99.90;;;;;;5073958;28;20180;-69
2023/05/11 08:10:45;;;;;;;7.40;3.07;;;17.00;99.90;;;;;;5074403;28;20179;-70
2023/05/11 08:13:13;;;;;;;9.37;3.03;;;16.90;99.90;;;;;;5074549;28;20254;-70
2023/05/11 08:15:41;;;;;;;5.37;2.47;;;16.80;99.90;;;;;;5074492;28;20172;-72
2023/05/11 08:18:09;;;;;;;4.87;2.40;;;16.70;99.90;;;;;;5074421;28;20274;-70
2023/05/11 08:20:40;;;;;;;7.90;3.27;;;16.50;99.90;;;;;;5074626;28;20637;-69
2023/05/11 08:23:09;;;;;;;10.97;3.03;;;16.50;99.90;;;;;;5074484;28;20230;-70
2023/05/11 08:25:37;;;;;;;10.17;3.23;;;16.40;99.90;;;;;;5074187;28;20187;-70
2023/05/11 08:28:05;;;;;;;11.87;3.17;;;16.20;99.90;;;;;;5073777;28;20531;-68
2023/05/11 08:30:32;;;;;;;12.33;3.40;;;16.10;99.90;;;;;;5074313;28;20206;-69
2023/05/11 08:33:02;;;;;;;10.17;3.37;;;16.00;99.90;;;;;;5074140;28;20191;-68
2023/05/11 08:35:30;;;;;;;9.47;3.60;;;15.90;99.90;;;;;;5074267;28;20172;-69
2023/05/11 08:37:58;;;;;;;6.93;2.87;;;16.00;99.90;;;;;;5077051;28;20219;-71
2023/05/11 08:40:28;;;;;;;10.77;3.43;;;16.00;99.90;;;;;;5074419;28;20281;-70
2023/05/11 08:42:59;;;;;;;6.47;3.27;;;15.90;99.90;;;;;;5074083;28;20226;-69
2023/05/11 08:45:27;;;;;;;8.60;3.73;;;15.80;99.90;;;;;;5075497;28;20555;-69
2023/05/11 08:47:55;;;;;;;12.53;3.47;;;15.70;99.90;;;;;;5075673;28;20215;-69
2023/05/11 08:50:23;;;;;;;11.70;3.30;;;15.70;99.90;;;;;;5072423;28;20188;-68
2023/05/11 08:52:51;;;;;;;8.23;3.23;;;15.70;99.90;;;;;;5074673;28;20184;-68
2023/05/11 08:55:21;;;;;;;11.33;3.40;;;15.60;99.90;;;;;;5074093;28;20219;-68
2023/05/11 08:57:50;;;;;;;9.13;3.17;;;15.50;99.90;;;;;;5074182;28;20208;-69
2023/05/11 09:00:19;;;;;;;6.43;3.27;;;15.50;99.90;;;;;;5073666;28;20172;-68
2023/05/11 09:02:48;;;;;;;10.40;3.80;;;15.40;99.90;;;;;;5072481;28;20192;-69
2023/05/11 09:05:16;;;;;;;7.43;3.37;;;15.40;99.90;;;;;;5073546;28;20638;-70
2023/05/11 09:07:46;;;;;;;10.33;3.00;;;15.40;99.90;;;;;;5073358;28;20194;-69
2023/05/11 09:10:15;;;;;;;9.77;3.77;;;15.30;99.90;;;;;;5073542;28;20176;-70
2023/05/11 09:12:43;;;;;;;11.83;3.77;;;15.20;99.90;;;;;;5073042;28;20734;-69
2023/05/11 09:15:11;;;;;;;6.93;3.17;;;15.10;99.90;;;;;;5073218;28;20267;-68
2023/05/11 09:17:39;;;;;;;8.03;3.33;;;15.00;99.90;;;;;;5073206;28;20747;-68
2023/05/11 09:20:08;;;;;;;4.90;3.03;;;15.00;99.90;;;;;;5073551;28;20180;-69
2023/05/11 09:22:47;;;;;;;7.90;3.50;;;14.90;99.90;;;;;;5072174;28;20718;-70
2023/05/11 09:25:18;;;;;;;7.50;3.40;;;14.80;99.90;;;;;;5073390;28;20176;-70
2023/05/11 09:27:47;;;;;;;11.20;4.40;;;14.80;99.90;;;;;;5073085;28;20533;-70
2023/05/11 09:30:17;;;;;;;10.53;3.87;;;14.80;99.90;;;;;;5073288;28;20188;-70
2023/05/11 09:32:55;;;;;;;9.10;3.70;;;14.70;99.90;;;;;;5072779;28;20176;-70
2023/05/11 09:35:25;;;;;;;7.27;3.37;;;14.70;99.90;;;;;;5073293;28;20597;-69
2023/05/11 09:38:00;;;;;;;10.70;4.00;;;14.60;99.90;;;;;;5070334;28;21165;-69
2023/05/11 09:40:28;;;;;;;10.47;4.73;;;14.60;99.90;;;;;;5071744;28;20191;-70
2023/05/11 09:42:56;;;;;;;13.07;7.47;;;14.50;99.90;;;;;;5072082;28;20229;-68
2023/05/11 09:45:44;;;;;;;12.33;6.23;;;14.50;99.90;;;;;;5073037;28;20180;-71
2023/05/11 09:48:21;;;;;;;12.70;7.13;;;14.50;99.90;;;;;;5072695;28;20212;-71
2023/05/11 09:50:50;;;;;;;11.93;7.07;;;14.40;99.90;;;;;;5072848;28;20188;-69
2023/05/11 09:53:19;;;;;;;17.17;8.73;;;14.40;99.90;;;;;;5072638;28;20183;-70
2023/05/11 09:55:55;;;;;;;13.53;6.13;;;14.40;99.90;;;;;;5072758;28;20172;-69
2023/05/11 09:58:23;;;;;;;14.17;6.57;;;14.40;99.90;;;;;;5072542;28;20576;-68
2023/05/11 10:00:54;;;;;;;13.37;5.63;;;14.30;99.90;;;;;;5072590;28;20177;-70
2023/05/11 10:03:24;;;;;;;13.83;6.37;;;14.30;99.90;;;;;;5072473;28;20191;-69
2023/05/11 10:06:01;;;;;;;13.50;6.13;;;14.30;99.90;;;;;;5072578;28;20257;-70
2023/05/11 10:08:33;;;;;;;13.17;6.47;;;14.20;99.90;;;;;;5071075;28;20176;-69
2023/05/11 10:11:02;;;;;;;15.77;6.50;;;14.10;99.90;;;;;;5071515;28;20179;-69
2023/05/11 10:13:32;;;;;;;14.33;5.63;;;14.00;99.90;;;;;;5072292;28;20184;-70
2023/05/11 10:16:03;;;;;;;8.50;5.10;;;14.00;99.90;;;;;;5072408;28;20614;-70
2023/05/11 10:18:32;;;;;;;14.30;5.70;;;14.00;99.90;;;;;;5072277;28;20217;-68
2023/05/11 10:21:00;;;;;;;10.80;5.10;;;13.90;99.90;;;;;;5072276;28;20177;-69
2023/05/11 10:23:32;;;;;;;13.00;5.50;;;13.90;99.90;;;;;;5072074;28;20241;-69
2023/05/11 10:26:00;;;;;;;18.30;5.47;;;13.80;99.90;;;;;;5072147;28;20548;-70
2023/05/11 10:28:29;;;;;;;16.73;5.43;;;13.70;99.90;;;;;;5071830;28;20230;-69
2023/05/11 10:30:57;;;;;;;8.97;4.80;;;13.70;99.90;;;;;;5072001;28;20171;-68
2023/05/11 10:33:26;;;;;;;10.83;4.40;;;13.80;99.90;;;;;;5070805;28;20741;-70
2023/05/11 10:35:55;;;;;;;9.87;4.57;;;13.70;99.90;;;;;;5071973;28;20179;-70
2023/05/11 10:38:24;;;;;;;6.70;4.33;;;13.70;99.90;;;;;;5071868;28;20215;-70
2023/05/11 10:40:56;;;;;;;10.63;4.87;;;13.70;99.90;;;;;;5071856;28;20172;-68
2023/05/11 10:44:04;;;;;;;10.20;4.83;;;13.60;99.90;;;;;;5071860;28;20175;-68
2023/05/11 10:46:59;;;;;;;13.77;4.53;;;13.60;99.90;;;;;;5070666;28;20199;-68
2023/05/11 10:49:33;;;;;;;9.03;4.80;;;13.50;99.90;;;;;;5071358;28;20178;-68
2023/05/11 10:52:11;;;;;;;10.13;4.50;;;13.50;99.90;;;;;;5071210;28;20179;-68
2023/05/11 10:54:39;;;;;;;11.47;4.47;;;13.40;99.90;;;;;;5071391;28;20171;-67
2023/05/11 10:57:07;;;;;;;10.80;3.93;;;13.40;99.90;;;;;;5070905;28;20175;-68
2023/05/11 10:59:56;;;;;;;10.93;4.60;;;13.30;99.90;;;;;;5071127;28;20186;-67
2023/05/11 11:02:30;;;;;;;9.23;4.57;;;13.30;99.90;;;;;;5071054;28;20284;-66
2023/05/11 11:05:01;;;;;;;17.13;5.30;;;13.30;99.90;;;;;;5071008;28;20189;-67
2023/05/11 11:07:28;;;;;;;11.37;4.90;;;13.20;99.90;;;;;;5070846;28;20175;-67
2023/05/11 11:10:07;;;;;;;11.67;4.90;;;13.20;99.90;;;;;;5071278;28;20187;-67
2023/05/11 11:12:35;;;;;;;11.87;5.23;;;13.10;99.90;;;;;;5070903;28;20666;-68
2023/05/11 11:15:06;;;;;;;8.73;5.50;;;13.10;99.90;;;;;;5070929;28;20188;-67
2023/05/11 11:17:35;;;;;;;12.23;4.63;;;13.10;99.90;;;;;;5070619;28;20211;-67
2023/05/11 11:20:08;;;;;;;11.97;4.93;;;13.10;99.90;;;;;;5070723;28;20597;-67
2023/05/11 11:22:37;;;;;;;16.93;5.43;;;13.00;99.90;;;;;;5070016;28;20183;-68
2023/05/11 11:25:10;;;;;;;9.80;5.10;;;13.00;99.90;;;;;;5074413;28;20183;-69
2023/05/11 11:27:41;;;;;;;13.27;4.77;;;13.00;99.90;;;;;;5074961;28;20180;-67
2023/05/11 11:30:27;;;;;;;11.53;5.30;;;12.90;99.90;;;;;;5074801;28;20630;-69
2023/05/11 11:33:10;;;;;;;12.87;6.33;;;12.90;99.90;;;;;;5074962;28;20262;-69
2023/05/11 11:35:41;;;;;;;12.00;5.27;;;12.90;99.90;;;;;;5074825;28;20676;-69
2023/05/11 11:38:12;;;;;;;10.40;5.30;;;12.80;99.90;;;;;;5074785;28;20254;-70
2023/05/11 11:40:41;;;;;;;13.77;5.47;;;12.80;99.90;;;;;;5073466;28;20597;-69
2023/05/11 11:43:18;;;;;;;11.13;5.00;;;12.80;99.90;;;;;;5074640;28;20187;-70
2023/05/11 11:45:52;;;;;;;9.87;5.10;;;12.80;99.90;;;;;;5074512;28;20673;-69
2023/05/11 11:48:43;;;;;;;10.10;5.03;;;12.70;99.90;;;;;;5074541;28;20248;-70
2023/05/11 11:51:13;;;;;;;8.50;4.90;;;12.60;99.90;;;;;;5073760;28;20194;-68
2023/05/11 11:53:41;;;;;;;15.00;5.80;;;12.60;99.90;;;;;;5074624;28;20632;-68
2023/05/11 11:56:31;;;;;;;13.63;5.93;;;12.60;99.90;;;;;;5073720;28;20180;-68
2023/05/11 11:59:04;;;;;;;10.33;5.27;;;12.60;99.90;;;;;;5072751;28;20221;-69
2023/05/11 12:01:38;;;;;;;15.50;4.93;;;12.60;99.90;;;;;;5075531;28;20206;-69
2023/05/11 12:04:24;;;;;;;11.43;5.30;;;12.50;99.90;;;;;;5074992;28;20213;-69
2023/05/11 12:06:57;;;;;;;10.97;5.50;;;12.50;99.90;;;;;;5074322;28;20252;-69
2023/05/11 12:09:26;;;;;;;13.43;5.37;;;12.50;99.90;;;;;;5074726;28;20181;-69
2023/05/11 12:11:55;;;;;;;12.67;5.87;;;12.40;99.90;;;;;;5075109;28;20181;-70
2023/05/11 12:14:23;;;;;;;8.63;5.07;;;12.40;99.90;;;;;;5073885;28;20186;-70
2023/05/11 12:17:07;;;;;;;11.00;5.33;;;12.40;99.90;;;;;;5075099;28;20190;-70
2023/05/11 12:19:35;;;;;;;12.77;5.90;;;12.30;99.90;;;;;;5075115;28;20308;-70
2023/05/11 12:22:03;;;;;;;9.67;5.27;;;12.40;99.90;;;;;;5075224;28;20186;-69
2023/05/11 12:24:31;;;;;;;9.10;5.00;;;12.30;99.90;;;;;;5074920;28;20320;-70
2023/05/11 12:27:02;;;;;;;8.40;4.77;;;12.20;99.90;;;;;;5075162;28;20644;-69
2023/05/11 12:29:30;;;;;;;16.57;5.80;;;12.20;99.90;;;;;;5075004;28;20219;-70
2023/05/11 12:31:58;;;;;;;16.63;5.70;;;12.20;99.90;;;;;;5074933;28;20283;-69
2023/05/11 12:34:26;;;;;;;10.60;5.23;;;12.20;99.90;;;;;;5073055;28;20195;-69
2023/05/11 12:36:54;;;;;;;12.93;5.70;;;12.10;99.90;;;;;;5074874;28;20171;-69
2023/05/11 12:39:23;;;;;;;10.23;5.30;;;12.10;99.90;;;;;;5074859;28;20217;-69
2023/05/11 12:41:54;;;;;;;10.37;5.47;;;12.00;99.90;;;;;;5075132;28;20260;-69
2023/05/11 12:44:24;;;;;;;10.50;4.93;;;12.00;99.90;;;;;;5075153;28;20527;-69
2023/05/11 12:46:53;;;;;;;11.87;5.83;;;12.00;99.90;;;;;;5074407;28;20183;-69
2023/05/11 12:49:23;;;;;;;12.20;5.30;;;11.90;99.90;;;;;;5075111;28;20582;-69
2023/05/11 12:52:09;;;;;;;8.57;5.27;;;11.90;99.90;;;;;;5074729;28;20194;-70
2023/05/11 12:54:42;;;;;;;9.97;4.87;;;11.90;99.90;;;;;;5074917;28;20534;-68
2023/05/11 12:57:24;;;;;;;9.77;4.90;;;11.80;99.90;;;;;;5074476;28;20187;-69
2023/05/11 13:00:13;;;;;;;10.10;5.57;;;11.80;99.90;;;;;;5074798;28;20217;-69
2023/05/11 13:02:59;;;;;;;14.53;5.17;;;11.80;99.90;;;;;;5073926;28;20185;-70
2023/05/11 13:05:28;;;;;;;14.97;5.60;;;11.80;99.90;;;;;;5074742;28;20182;-70
2023/05/11 13:08:01;;;;;;;14.60;5.80;;;11.80;99.90;;;;;;5073238;28;20184;-71
2023/05/11 13:10:29;;;;;;;10.93;5.27;;;11.70;99.90;;;;;;5075081;28;20173;-70
2023/05/11 13:12:57;;;;;;;14.90;4.97;;;11.70;99.90;;;;;;5075089;28;20199;-69
2023/05/11 13:15:27;;;;;;;12.73;5.40;;;11.70;99.90;;;;;;5074767;28;20189;-70